• Join FlightAware (Why Join?)
  • Login
  • US Flag 
10:48AM EST


 

Airport Tracker/Info


-or-


 

Live Flight TrackerFlight Track Log ✈ FLG3735 ✈ 04-Aug-2013 ✈ KDTW - KALB

Flight Track Log - Related Links

Times and Time Zones

All times are in EDT time to prevent confusion due to time zone crossing. See the FLG3735 flight status page for this flight to view local times or setup timezone preferences in your user account.

Time Position Orientation Groundspeed Altitude Reporting Facility
EDT Latitude Longitude Course Direction KTS MPH feet Rate Location/Type
10:23PM 42.2931 -83.2808 35° Northeast 220 253 4,100  Level Cleveland Center
10:24PM 42.3550 -83.2217 35° Northeast 275 316 6,200 2,160 Climbing Cleveland Center
10:26PM 42.4189 -83.0611 62° Northeast 289 333 10,600 1,920 Climbing Cleveland Center
10:27PM 42.4069 -82.9369 97° East 289 333 11,900 1,200 Climbing Cleveland Center
10:28PM 42.3950 -82.7986 97° East 334 384 13,000 1,020 Climbing Cleveland Center
10:29PM 42.3833 -82.6492 96° East 374 430 14,000 960 Climbing Cleveland Center
10:30PM 42.3714 -82.4942 96° East 403 464 15,000 960 Climbing Cleveland Center
10:31PM 42.3633 -82.3367 94° East 416 479 16,000 960 Climbing Cleveland Center
10:32PM 42.3761 -82.1767 84° East 416 479 17,000 900 Climbing Cleveland Center
10:33PM 42.3889 -82.0000 84° East 421 484 17,900 900 Climbing Cleveland Center
10:34PM 42.4033 -81.8400 83° East 430 495 18,900 960 Climbing Cleveland Center
10:35PM 42.4153 -81.6772 84° East 430 495 19,900 960 Climbing Cleveland Center
10:36PM 42.4272 -81.5197 84° East 425 489 20,900 840 Climbing Cleveland Center
10:37PM 42.4389 -81.3569 84° East 425 489 21,600 720 Climbing Cleveland Center
10:38PM 42.4503 -81.1939 85° East 433 498 22,400 720 Climbing Cleveland Center
10:39PM 42.4636 -81.0222 84° East 444 511 23,100 600 Climbing Cleveland Center
10:40PM 42.4744 -80.8758 84° East 444 511 23,700 600 Climbing Cleveland Center
10:41PM 42.4853 -80.7042 85° East 449 517 24,400 600 Climbing Cleveland Center
10:42PM 42.4956 -80.5325 85° East 449 517 24,900 480 Climbing Cleveland Center
10:43PM 42.5100 -80.3578 84° East 464 534 25,400 480 Climbing Cleveland Center
10:44PM 42.5200 -80.1889 85° East 457 526 25,900 480 Climbing Cleveland Center
10:45PM 42.5317 -79.9972 85° East 463 533 26,400 540 Climbing Cleveland Center
10:46PM 42.5453 -79.8167 84° East 463 533 27,000 540 Climbing Cleveland Center
10:47PM 42.5564 -79.6447 85° East 463 533 27,500 480 Climbing Cleveland Center
10:48PM 42.5672 -79.4639 85° East 463 533 28,000 480 Climbing Cleveland Center
10:49PM 42.5758 -79.2861 86° East 463 533 28,500 480 Climbing Cleveland Center
10:50PM 42.5864 -79.1111 85° East 463 533 29,000 240 Climbing Cleveland Center
10:51PM 42.5942 -78.9278 87° East 463 533 29,000  Level Cleveland Center
10:52PM 42.6039 -78.7469 86° East 469 540 29,000  Level Cleveland Center
10:53PM 42.6133 -78.5631 86° East 480 552 29,000  Level Cleveland Center
10:54PM 42.6225 -78.3767 86° East 485 558 29,000  Level Cleveland Center
10:55PM 42.6314 -78.1900 86° East 491 565 29,000  Level Cleveland Center
10:56PM 42.6397 -78.0033 86° East 491 565 29,000  Level Cleveland Center
10:57PM 42.6481 -77.8167 86° East 491 565 29,000  Level Cleveland Center
10:58PM 42.6558 -77.6300 87° East 496 571 29,000  Level Cleveland Center
11:00PM 42.6669 -77.3119 87° East 501 577 29,000  Level Boston Center
11:01PM 42.6750 -77.1231 87° East 496 571 29,000  Level Boston Center
11:02PM 42.6825 -76.9372 87° East 496 571 29,000  Level Boston Center
11:03PM 42.6875 -76.7511 88° East 496 571 29,000  Level Boston Center
11:04PM 42.6947 -76.5594 87° East 496 571 29,000  Level Boston Center
11:05PM 42.6992 -76.3731 88° East 496 571 29,000  Level Boston Center
11:06PM 42.7061 -76.1700 87° East 496 571 29,000  Level Boston Center
11:07PM 42.7100 -75.9808 88° East 496 571 29,000  Level Boston Center
11:08PM 42.7158 -75.7892 88° East 501 577 29,000 -780 Level Boston Center
11:09PM 42.7211 -75.6000 88° East 501 577 27,500 -1,800 Descending Boston Center
11:10PM 42.7222 -75.4106 89° East 494 568 25,500 -1,980 Descending Boston Center
11:11PM 42.7289 -75.2244 87° East 494 568 23,600 -2,040 Descending Boston Center
11:12PM 42.7311 -75.0464 89° East 482 555 21,500 -2,100 Descending Boston Center
11:13PM 42.7350 -74.8711 88° East 471 542 19,500 -2,040 Descending Boston Center
11:14PM 42.7383 -74.7044 88° East 454 522 17,500 -2,040 Descending Boston Center
11:14PM 42.7386 -74.5831 90° East 422 486 15,900 -2,040 Descending Boston Center
11:15PM 42.7372 -74.4414 91° East 411 473 14,000 -2,040 Descending Boston Center
11:16PM 42.7206 -74.3139 100° East 351 404 12,200 -2,040 Descending Boston Center
11:17PM 42.7058 -74.1947 100° East 312 359 10,200 -2,040 Descending Boston Center
11:18PM 42.6908 -74.0842 100° East 290 334 8,200 -2,040 Descending Boston Center
11:19PM 42.6650 -73.9844 109° East 279 321 6,200 -1,980 Descending Boston Center
11:20PM 42.6203 -73.9017 126° Southeast 278 320 4,200 -1,920 Descending Boston Center
11:21PM 42.6028 -73.8081 104° East 249 287 2,400 -1,200 Descending Boston Center
11:22PM 42.6486 -73.8006 North 150 173 1,800 -600 Descending Boston Center
11:23PM 42.6881 -73.8044 356° North 136 157 1,200 -600 Descending Boston Center
11:24PM 42.7256 -73.8053 359° North 129 148 600 -600 Descending Boston Center